Tenerife > ESTACION METEOROLÓGICA Valle Grande - Santa Cruz de Tenerife

DATOS ACTUALES Online

Ultima actulizacion 59 minutos

18.5 ºC

Temperatura

73

Humedad (%)

990.56

Presión (mb)

0

Precipitación (mm)

22.8 S

Viento (Km/h)

DATOS DIARIOS

Temperatura últimas 24 horas (ºC)

Humedad últimas 24 horas (%)

Presión atmosférica últimas 24 horas (mb)

Precipitaciones últimas 23 horas (mm)

Viento últimas 24 horas (Km/h)

Hora Temperatura (°C) ºC Precipitación (mm) mm Presión (mb) mb Humedad (%) % Viento (Km/h) km/h
28 - 09:00 19.1 0 990 73 20.2 SO
28 - 10:00 18.3 0 990 82 23.4 SW
28 - 11:00 18.2 0 991 83 10 NO
28 - 12:00 18.8 0 991 76 16.6 SW
28 - 13:00 19.8 0 991 72 17.9 SO
28 - 14:00 20.4 0 991 68 19.1 SW
28 - 15:00 20.8 0 990 66 23.6 O
28 - 16:00 20.8 0 990 68 23 SW
28 - 17:00 19.5 0 990 75 24.7 SW
28 - 18:00 19.7 0 990 73 28.3 SW
28 - 19:00 19.6 0 990 71 23.6 SW
28 - 20:00 19.3 0 990 73 36.6 S
28 - 21:00 19.2 0 990 72 31.4 SW
28 - 22:00 18.3 0 991 80 27.8 SW
28 - 23:00 19 0 991 74 21.7 SW
29 - 00:00 18.9 0 991 74 21.4 S
29 - 01:00 18.6 0 991 77 23.7 SW
29 - 02:00 18.7 0 990 73 38.1 SW
29 - 03:00 18.6 0 989 66 39.3 SO
29 - 04:00 17.7 0 990 83 19.9 SW
29 - 05:00 17.7 0 989 83 23.5 SO
29 - 06:00 17.6 0 990 85 33.7 SW
29 - 07:00 18.2 0 990 71 28.4 W
29 - 08:00 18.5 0 991 73 22.8 S
29 - 09:00
Apalmet utiliza cookies propias y de terceros para mejorar la usabilidad y la experiencia web. Política de cookies.